createdAt,value
2018-09-26T00:00:39.369Z,9.00
2018-09-26T00:03:11.509Z,9.00
2018-09-26T00:05:40.005Z,8.90
2018-09-26T00:08:08.521Z,8.90
2018-09-26T00:10:36.995Z,8.90
2018-09-26T00:13:05.456Z,8.80
2018-09-26T00:15:33.906Z,8.80
2018-09-26T00:18:02.317Z,8.80
2018-09-26T00:20:30.792Z,8.70
2018-09-26T00:22:59.233Z,8.70
2018-09-26T00:25:27.669Z,8.70
2018-09-26T00:27:56.126Z,8.60
2018-09-26T00:30:24.566Z,8.60
2018-09-26T00:32:52.998Z,8.60
2018-09-26T00:35:21.453Z,8.50
2018-09-26T00:37:49.895Z,8.50
2018-09-26T00:40:18.447Z,8.50
2018-09-26T00:42:47.161Z,8.50
2018-09-26T00:45:15.642Z,8.50
2018-09-26T00:47:44.091Z,8.50
2018-09-26T00:50:12.589Z,8.40
2018-09-26T00:52:41.009Z,8.40
2018-09-26T00:55:09.447Z,8.40
2018-09-26T00:57:37.878Z,8.40
2018-09-26T01:00:06.635Z,8.40
2018-09-26T01:02:35.053Z,8.40
2018-09-26T01:05:03.594Z,8.40
2018-09-26T01:07:32.081Z,8.40
2018-09-26T01:10:00.536Z,8.30
2018-09-26T01:12:28.971Z,8.30
2018-09-26T01:14:57.425Z,8.30
2018-09-26T01:17:25.844Z,8.20
2018-09-26T01:19:54.293Z,8.20
2018-09-26T01:22:22.748Z,8.20
2018-09-26T01:24:51.197Z,8.10
2018-09-26T01:27:19.717Z,8.20
2018-09-26T01:29:48.132Z,8.20
2018-09-26T01:32:16.580Z,8.10
2018-09-26T01:34:45.021Z,8.20
2018-09-26T01:37:13.479Z,8.20
2018-09-26T01:39:42.045Z,8.20
2018-09-26T01:42:10.556Z,8.20
2018-09-26T01:44:38.979Z,8.20
2018-09-26T01:47:08.652Z,8.20
2018-09-26T01:49:37.099Z,8.20
2018-09-26T01:52:05.556Z,8.20
2018-09-26T01:54:33.994Z,8.20
2018-09-26T01:57:02.465Z,8.20
2018-09-26T01:59:30.910Z,8.20
2018-09-26T02:01:59.363Z,8.20
2018-09-26T02:04:27.810Z,8.20
2018-09-26T02:06:56.269Z,8.30
2018-09-26T02:09:24.698Z,8.30
2018-09-26T02:11:53.136Z,8.30
2018-09-26T02:14:21.578Z,8.30
2018-09-26T02:16:49.996Z,8.30
2018-09-26T02:19:18.438Z,8.20
2018-09-26T02:21:46.872Z,8.30
2018-09-26T02:24:15.326Z,8.20
2018-09-26T02:26:43.793Z,8.20
2018-09-26T02:29:12.622Z,8.20
2018-09-26T02:31:41.086Z,8.20
2018-09-26T02:34:09.522Z,8.20
2018-09-26T02:36:37.981Z,8.20
2018-09-26T02:39:07.042Z,8.20
2018-09-26T02:41:35.583Z,8.20
2018-09-26T02:44:04.058Z,8.20
2018-09-26T02:46:32.514Z,8.10
2018-09-26T02:49:05.518Z,8.10
2018-09-26T02:51:35.350Z,8.10
2018-09-26T02:54:03.830Z,8.10
2018-09-26T02:56:33.714Z,8.00
2018-09-26T02:59:02.159Z,8.00
2018-09-26T03:01:30.620Z,8.00
2018-09-26T03:03:59.091Z,8.00
2018-09-26T03:06:27.571Z,8.00
2018-09-26T03:08:56.023Z,8.00
2018-09-26T03:11:24.475Z,8.00
2018-09-26T03:13:52.876Z,8.00
2018-09-26T03:16:21.322Z,8.00
2018-09-26T03:18:49.745Z,7.90
2018-09-26T03:21:18.213Z,7.90
2018-09-26T03:23:46.641Z,8.00
2018-09-26T03:26:15.110Z,7.90
2018-09-26T03:28:43.554Z,7.90
2018-09-26T03:31:11.997Z,7.90
2018-09-26T03:33:40.532Z,7.90
2018-09-26T03:36:08.946Z,7.90
2018-09-26T03:38:37.387Z,7.90
2018-09-26T03:41:05.869Z,7.90
2018-09-26T03:43:34.302Z,7.90
2018-09-26T03:46:02.753Z,7.80
2018-09-26T03:48:31.161Z,7.80
2018-09-26T03:50:59.655Z,7.80
2018-09-26T03:53:28.120Z,7.80
2018-09-26T03:55:56.583Z,7.70
2018-09-26T03:58:25.042Z,7.70
2018-09-26T04:00:53.522Z,7.70
2018-09-26T04:03:21.999Z,7.60
2018-09-26T04:05:50.445Z,7.70
2018-09-26T04:08:18.891Z,7.70
2018-09-26T04:10:47.350Z,7.60
2018-09-26T04:13:15.863Z,7.60
2018-09-26T04:15:58.873Z,7.60
2018-09-26T04:18:27.544Z,7.60
2018-09-26T04:20:56.462Z,7.60
2018-09-26T04:23:24.917Z,7.60
2018-09-26T04:25:53.363Z,7.60
2018-09-26T04:28:21.822Z,7.50
2018-09-26T04:30:50.391Z,7.50
2018-09-26T04:33:19.039Z,7.50
2018-09-26T04:35:47.285Z,7.50
2018-09-26T04:38:15.742Z,7.50
2018-09-26T04:40:44.257Z,7.50
2018-09-26T04:43:12.721Z,7.50
2018-09-26T04:45:41.167Z,7.50
2018-09-26T04:48:09.617Z,7.50
2018-09-26T04:50:38.082Z,7.50
2018-09-26T04:53:06.528Z,7.50
2018-09-26T04:55:34.968Z,7.40
2018-09-26T04:58:03.527Z,7.40
2018-09-26T05:00:31.928Z,7.30
2018-09-26T05:03:00.447Z,7.30
2018-09-26T05:05:28.876Z,7.30
2018-09-26T05:07:57.331Z,7.30
2018-09-26T05:10:25.771Z,7.20
2018-09-26T05:12:54.250Z,7.20
2018-09-26T05:15:22.723Z,7.20
2018-09-26T05:17:51.184Z,7.20
2018-09-26T05:20:19.634Z,7.20
2018-09-26T05:22:48.118Z,7.20
2018-09-26T05:25:16.541Z,7.20
2018-09-26T05:27:44.962Z,7.20
2018-09-26T05:30:13.464Z,7.20
2018-09-26T05:32:41.934Z,7.20
2018-09-26T05:35:10.371Z,7.20
2018-09-26T05:37:38.888Z,7.20
2018-09-26T05:40:07.396Z,7.30
2018-09-26T05:42:35.839Z,7.30
2018-09-26T05:45:04.328Z,7.30
2018-09-26T05:47:32.856Z,7.30
2018-09-26T05:50:01.336Z,7.40
2018-09-26T05:52:29.834Z,7.40
2018-09-26T05:54:58.284Z,7.40
2018-09-26T05:57:26.759Z,7.40
2018-09-26T05:59:55.235Z,7.50
2018-09-26T06:02:23.702Z,7.50
2018-09-26T06:04:52.174Z,7.50
2018-09-26T06:07:20.610Z,7.60
2018-09-26T06:09:49.106Z,7.60
2018-09-26T06:12:18.580Z,7.60
2018-09-26T06:14:47.061Z,7.60
2018-09-26T06:17:15.552Z,7.60
2018-09-26T06:19:44.013Z,7.70
2018-09-26T06:22:12.497Z,7.70
2018-09-26T06:24:41.002Z,7.70
2018-09-26T06:27:09.405Z,7.80
2018-09-26T06:29:37.835Z,7.80
2018-09-26T06:32:06.357Z,7.90
2018-09-26T06:34:34.794Z,7.90
2018-09-26T06:37:03.239Z,7.90
2018-09-26T06:39:31.754Z,8.00
2018-09-26T06:42:00.206Z,8.00
2018-09-26T06:44:28.769Z,8.00
2018-09-26T06:46:57.243Z,8.10
2018-09-26T06:49:25.844Z,8.10
2018-09-26T06:51:54.327Z,8.10
2018-09-26T06:54:22.771Z,8.10
2018-09-26T06:56:51.248Z,8.20
2018-09-26T06:59:19.917Z,8.20
2018-09-26T07:01:48.396Z,8.20
2018-09-26T07:04:16.899Z,8.30
2018-09-26T07:06:45.703Z,8.40
2018-09-26T07:09:14.187Z,8.40
2018-09-26T07:11:42.636Z,8.50
2018-09-26T07:14:11.082Z,8.60
2018-09-26T07:16:39.506Z,8.70
2018-09-26T07:19:07.994Z,8.70
2018-09-26T07:21:37.289Z,8.80
2018-09-26T07:24:05.847Z,8.90
2018-09-26T07:26:34.373Z,9.00
2018-09-26T07:29:02.840Z,9.10
2018-09-26T07:31:31.391Z,9.20
2018-09-26T07:33:59.803Z,9.20
2018-09-26T07:36:28.281Z,9.30
2018-09-26T07:38:56.752Z,9.40
2018-09-26T07:41:25.237Z,9.00
2018-09-26T07:43:53.707Z,9.50
2018-09-26T07:46:22.155Z,9.60
2018-09-26T07:48:50.612Z,9.60
2018-09-26T07:51:19.113Z,9.70
2018-09-26T07:53:47.542Z,9.70
2018-09-26T07:56:16.090Z,9.80
2018-09-26T07:58:44.553Z,9.90
2018-09-26T08:01:12.991Z,9.90
2018-09-26T08:03:41.422Z,9.90
2018-09-26T08:06:10.319Z,10.00
2018-09-26T08:08:39.333Z,10.10
2018-09-26T08:11:07.940Z,10.20
2018-09-26T08:13:36.477Z,10.30
2018-09-26T08:16:04.939Z,10.40
2018-09-26T08:18:33.483Z,10.50
2018-09-26T08:21:01.918Z,10.60
2018-09-26T08:23:30.418Z,10.70
2018-09-26T08:25:59.008Z,10.80
2018-09-26T08:28:27.495Z,10.90
2018-09-26T08:30:55.997Z,11.00
2018-09-26T08:33:24.451Z,11.00
2018-09-26T08:35:52.948Z,11.10
2018-09-26T08:38:21.406Z,11.20
2018-09-26T08:40:49.888Z,11.20
2018-09-26T08:43:18.327Z,11.20
2018-09-26T08:45:46.877Z,11.30
2018-09-26T08:48:15.404Z,11.40
2018-09-26T08:50:43.856Z,11.50
2018-09-26T08:53:12.416Z,11.60
2018-09-26T08:55:40.922Z,11.70
2018-09-26T08:58:09.526Z,11.80
2018-09-26T09:00:38.476Z,11.90
2018-09-26T09:03:08.170Z,12.10
2018-09-26T09:05:37.163Z,12.20
2018-09-26T09:08:05.786Z,12.30
2018-09-26T09:10:34.263Z,12.40
2018-09-26T09:13:02.735Z,12.50
2018-09-26T09:15:31.216Z,12.70
2018-09-26T09:17:59.747Z,12.80
2018-09-26T09:20:28.214Z,12.90
2018-09-26T09:22:56.673Z,13.10
2018-09-26T09:25:25.209Z,13.20
2018-09-26T09:27:53.632Z,13.40
2018-09-26T09:30:22.093Z,13.50
2018-09-26T09:32:50.914Z,13.70
2018-09-26T09:35:19.690Z,13.90
2018-09-26T09:37:48.386Z,14.10
2018-09-26T09:40:17.046Z,14.30
2018-09-26T09:42:45.830Z,14.50
2018-09-26T09:45:14.296Z,14.70
2018-09-26T09:47:42.710Z,14.90
2018-09-26T09:50:11.218Z,15.10
2018-09-26T09:52:39.657Z,15.20
2018-09-26T09:55:08.147Z,15.40
2018-09-26T09:57:36.671Z,15.50
2018-09-26T10:00:05.206Z,15.70
2018-09-26T10:02:33.797Z,15.90
2018-09-26T10:05:02.285Z,16.00
2018-09-26T10:07:30.793Z,16.20
2018-09-26T10:09:59.263Z,16.40
2018-09-26T10:12:27.731Z,16.40
2018-09-26T10:14:56.221Z,16.40
2018-09-26T10:17:24.737Z,16.50
2018-09-26T10:19:53.157Z,16.80
2018-09-26T10:22:21.635Z,16.90
2018-09-26T10:24:50.079Z,17.10
2018-09-26T10:27:18.549Z,17.00
2018-09-26T10:29:47.018Z,17.10
2018-09-26T10:32:15.612Z,17.10
2018-09-26T10:34:44.044Z,17.20
2018-09-26T10:37:12.684Z,17.30
2018-09-26T10:39:41.242Z,17.30
2018-09-26T10:42:09.704Z,17.40
2018-09-26T10:44:38.189Z,17.50
2018-09-26T10:47:06.624Z,17.50
2018-09-26T10:49:35.141Z,17.60
2018-09-26T10:52:03.593Z,17.60
2018-09-26T10:54:32.093Z,17.60
2018-09-26T10:57:00.577Z,17.60
2018-09-26T10:59:29.075Z,17.80
2018-09-26T11:01:57.566Z,17.60
2018-09-26T11:04:26.078Z,17.90
2018-09-26T11:06:54.674Z,18.00
2018-09-26T11:09:23.159Z,18.00
2018-09-26T11:11:51.644Z,17.90
2018-09-26T11:14:20.161Z,18.00
2018-09-26T11:16:48.766Z,18.10
2018-09-26T11:19:17.433Z,18.20
2018-09-26T11:21:45.917Z,18.20
2018-09-26T11:24:14.481Z,18.20
2018-09-26T11:26:43.008Z,18.30
2018-09-26T11:29:11.445Z,18.30
2018-09-26T11:31:39.889Z,18.40
2018-09-26T11:34:08.443Z,18.50
2018-09-26T11:36:36.853Z,18.60
2018-09-26T11:39:07.616Z,18.70
2018-09-26T11:41:36.063Z,18.90
2018-09-26T11:44:04.601Z,19.10
2018-09-26T11:46:33.032Z,19.20
2018-09-26T11:49:01.504Z,19.40
2018-09-26T11:51:30.274Z,19.20
2018-09-26T11:53:58.817Z,19.10
2018-09-26T11:56:27.369Z,19.20
2018-09-26T11:58:55.764Z,19.30
2018-09-26T12:01:24.320Z,19.20
2018-09-26T12:03:52.847Z,19.30
2018-09-26T12:06:21.363Z,19.50
2018-09-26T12:08:49.793Z,19.70
2018-09-26T12:11:18.259Z,19.90
2018-09-26T12:13:46.857Z,19.70
2018-09-26T12:16:15.445Z,19.90
2018-09-26T12:18:43.884Z,20.00
2018-09-26T12:21:12.340Z,19.80
2018-09-26T12:23:40.880Z,19.80
2018-09-26T12:26:09.470Z,19.90
2018-09-26T12:28:37.947Z,20.20
2018-09-26T12:31:06.522Z,20.20
2018-09-26T12:33:34.998Z,20.10
2018-09-26T12:36:03.547Z,19.90
2018-09-26T12:38:32.055Z,19.80
2018-09-26T12:41:00.520Z,20.00
2018-09-26T12:43:28.976Z,20.00
2018-09-26T12:45:57.436Z,20.10
2018-09-26T12:48:25.978Z,20.10
2018-09-26T12:50:54.384Z,20.20
2018-09-26T12:53:22.868Z,20.20
2018-09-26T12:55:51.316Z,20.30
2018-09-26T12:58:19.777Z,20.50
2018-09-26T13:00:48.357Z,20.90
2018-09-26T13:03:16.741Z,20.90
2018-09-26T13:05:45.169Z,21.10
2018-09-26T13:08:13.638Z,20.90
2018-09-26T13:10:42.330Z,20.70
2018-09-26T13:13:10.788Z,20.80
2018-09-26T13:15:39.244Z,20.70
2018-09-26T13:18:07.721Z,20.70
2018-09-26T13:20:36.164Z,20.90
2018-09-26T13:23:04.612Z,21.30
2018-09-26T13:25:33.101Z,21.50
2018-09-26T13:28:01.534Z,21.60
2018-09-26T13:30:29.996Z,21.40
2018-09-26T13:32:58.482Z,21.60
2018-09-26T13:35:26.990Z,21.70
2018-09-26T13:37:55.488Z,21.60
2018-09-26T13:40:24.057Z,21.40
2018-09-26T13:42:52.453Z,21.20
2018-09-26T13:45:20.914Z,21.10
2018-09-26T13:47:49.440Z,21.00
2018-09-26T13:50:17.963Z,21.10
2018-09-26T13:52:46.529Z,21.00
2018-09-26T13:55:15.118Z,21.00
2018-09-26T13:57:43.580Z,21.20
2018-09-26T14:00:14.881Z,21.10
2018-09-26T14:02:43.413Z,21.00
2018-09-26T14:05:11.871Z,20.90
2018-09-26T14:07:40.555Z,20.90
2018-09-26T14:10:09.338Z,20.70
2018-09-26T14:12:37.823Z,20.70
2018-09-26T14:15:06.372Z,20.70
2018-09-26T14:17:34.877Z,20.90
2018-09-26T14:20:03.361Z,21.00
2018-09-26T14:22:31.910Z,21.00
2018-09-26T14:25:00.362Z,20.90
2018-09-26T14:27:28.948Z,20.80
2018-09-26T14:29:57.533Z,20.70
2018-09-26T14:32:26.076Z,20.60
2018-09-26T14:34:54.539Z,20.50
2018-09-26T14:37:23.026Z,20.30
2018-09-26T14:39:51.487Z,20.20
2018-09-26T14:42:19.953Z,20.20
2018-09-26T14:44:48.442Z,20.30
2018-09-26T14:47:16.981Z,20.30
2018-09-26T14:49:45.404Z,20.30
2018-09-26T14:52:13.856Z,20.30
2018-09-26T14:54:42.348Z,20.40
2018-09-26T14:57:10.817Z,20.40
2018-09-26T14:59:39.302Z,20.20
2018-09-26T15:02:07.856Z,20.10
2018-09-26T15:04:36.387Z,20.00
2018-09-26T15:07:04.838Z,20.10
2018-09-26T15:09:33.296Z,20.10
2018-09-26T15:12:01.780Z,20.10
2018-09-26T15:14:30.286Z,20.10
2018-09-26T15:16:59.522Z,20.00
2018-09-26T15:19:28.265Z,20.00
2018-09-26T15:21:56.837Z,19.90
2018-09-26T15:24:26.197Z,19.80
2018-09-26T15:26:54.751Z,19.80
2018-09-26T15:29:23.273Z,19.80
2018-09-26T15:31:51.757Z,19.80
2018-09-26T15:34:20.306Z,19.70
2018-09-26T15:36:49.576Z,19.70
2018-09-26T15:39:18.121Z,19.70
2018-09-26T15:41:46.667Z,19.60
2018-09-26T15:44:15.195Z,19.60
2018-09-26T15:46:43.815Z,19.50
2018-09-26T15:49:12.367Z,19.50
2018-09-26T15:51:40.891Z,19.50
2018-09-26T15:54:09.354Z,19.50
2018-09-26T15:56:37.797Z,19.50
2018-09-26T15:59:06.265Z,19.50
2018-09-26T16:01:34.842Z,19.40
2018-09-26T16:04:03.319Z,19.40
2018-09-26T16:06:31.800Z,19.40
2018-09-26T16:09:00.367Z,19.40
2018-09-26T16:11:28.809Z,19.30
2018-09-26T16:13:57.336Z,19.30
2018-09-26T16:16:25.911Z,19.30
2018-09-26T16:18:54.324Z,19.20
2018-09-26T16:21:22.821Z,19.20
2018-09-26T16:23:51.295Z,19.10
2018-09-26T16:26:19.845Z,19.10
2018-09-26T16:28:48.263Z,19.10
2018-09-26T16:31:16.829Z,19.10
2018-09-26T16:33:45.310Z,19.10
2018-09-26T16:36:13.894Z,19.00
2018-09-26T16:38:42.409Z,18.90
2018-09-26T16:41:10.884Z,18.90
2018-09-26T16:43:39.639Z,18.80
2018-09-26T16:46:08.135Z,18.80
2018-09-26T16:48:37.112Z,18.70
2018-09-26T16:51:05.657Z,18.70
2018-09-26T16:53:34.095Z,18.60
2018-09-26T16:56:02.640Z,18.50
2018-09-26T16:58:31.104Z,18.40
2018-09-26T17:00:59.621Z,18.40
2018-09-26T17:03:28.073Z,18.30
2018-09-26T17:05:56.541Z,18.20
2018-09-26T17:08:25.065Z,18.20
2018-09-26T17:10:53.511Z,18.10
2018-09-26T17:13:21.981Z,17.90
2018-09-26T17:15:50.439Z,17.80
2018-09-26T17:18:18.930Z,17.70
2018-09-26T17:20:47.390Z,17.60
2018-09-26T17:23:15.848Z,17.50
2018-09-26T17:25:44.262Z,17.40
2018-09-26T17:28:12.776Z,17.20
2018-09-26T17:30:41.225Z,17.10
2018-09-26T17:33:09.672Z,17.00
2018-09-26T17:35:38.153Z,16.90
2018-09-26T17:38:06.599Z,16.80
2018-09-26T17:40:35.068Z,16.70
2018-09-26T17:43:03.548Z,16.60
2018-09-26T17:45:32.082Z,16.50
2018-09-26T17:48:00.524Z,16.40
2018-09-26T17:50:28.989Z,16.30
2018-09-26T17:52:57.453Z,16.30
2018-09-26T17:55:26.093Z,16.20
2018-09-26T17:57:54.586Z,16.10
2018-09-26T18:00:23.071Z,16.00
2018-09-26T18:02:51.593Z,15.90
2018-09-26T18:05:20.072Z,15.90
2018-09-26T18:07:48.575Z,15.70
2018-09-26T18:10:17.056Z,15.70
2018-09-26T18:12:45.610Z,15.60
2018-09-26T18:15:14.058Z,15.50
2018-09-26T18:17:42.507Z,15.50
2018-09-26T18:20:11.179Z,15.40
2018-09-26T18:22:39.620Z,15.40
2018-09-26T18:25:08.165Z,15.40
2018-09-26T18:27:36.728Z,15.30
2018-09-26T18:30:05.795Z,15.30
2018-09-26T18:32:34.247Z,15.30
2018-09-26T18:35:02.697Z,15.30
2018-09-26T18:37:31.188Z,15.20
2018-09-26T18:39:59.673Z,15.20
2018-09-26T18:42:28.103Z,15.00
2018-09-26T18:44:56.697Z,14.90
2018-09-26T18:47:25.166Z,14.90
2018-09-26T18:49:53.607Z,14.80
2018-09-26T18:52:22.103Z,14.80
2018-09-26T18:54:50.633Z,14.70
2018-09-26T18:57:19.138Z,14.60
2018-09-26T18:59:47.592Z,14.50
2018-09-26T19:02:16.046Z,14.50
2018-09-26T19:04:44.601Z,14.40
2018-09-26T19:07:13.041Z,14.30
2018-09-26T19:09:41.510Z,14.30
2018-09-26T19:12:10.028Z,14.20
2018-09-26T19:14:38.434Z,14.20
2018-09-26T19:17:06.924Z,14.20
2018-09-26T19:19:35.418Z,14.20
2018-09-26T19:22:03.981Z,14.10
2018-09-26T19:24:32.457Z,14.00
2018-09-26T19:27:01.007Z,14.00
2018-09-26T19:29:29.602Z,14.00
2018-09-26T19:32:04.471Z,14.00
2018-09-26T19:34:32.924Z,13.90
2018-09-26T19:37:01.437Z,13.90
2018-09-26T19:39:29.926Z,13.80
2018-09-26T19:41:58.404Z,13.80
2018-09-26T19:44:26.880Z,13.70
2018-09-26T19:46:55.391Z,13.70
2018-09-26T19:49:23.852Z,13.60
2018-09-26T19:51:52.348Z,13.60
2018-09-26T19:54:20.948Z,13.50
2018-09-26T19:56:49.399Z,13.50
2018-09-26T19:59:17.859Z,13.50
2018-09-26T20:01:46.379Z,13.40
2018-09-26T20:04:14.847Z,13.40
2018-09-26T20:06:43.318Z,13.40
2018-09-26T20:09:12.901Z,13.40
2018-09-26T20:11:41.830Z,13.40
2018-09-26T20:14:10.382Z,13.40
2018-09-26T20:16:39.287Z,13.50
2018-09-26T20:19:07.828Z,13.50
2018-09-26T20:21:36.258Z,13.50
2018-09-26T20:24:04.743Z,13.50
2018-09-26T20:26:33.220Z,13.50
2018-09-26T20:29:01.808Z,13.50
2018-09-26T20:31:30.260Z,13.50
2018-09-26T20:33:58.678Z,13.40
2018-09-26T20:36:27.183Z,13.30
2018-09-26T20:38:55.743Z,13.30
2018-09-26T20:41:24.188Z,13.20
2018-09-26T20:43:52.639Z,13.10
2018-09-26T20:46:21.092Z,13.00
2018-09-26T20:48:49.673Z,12.90
2018-09-26T20:51:18.121Z,12.90
2018-09-26T20:53:46.567Z,12.80
2018-09-26T20:56:15.073Z,12.70
2018-09-26T20:58:43.536Z,12.70
2018-09-26T21:01:12.015Z,12.60
2018-09-26T21:03:40.476Z,12.60
2018-09-26T21:06:09.164Z,12.50
2018-09-26T21:08:37.630Z,12.50
2018-09-26T21:11:06.733Z,12.50
2018-09-26T21:13:35.256Z,12.40
2018-09-26T21:16:03.711Z,12.40
2018-09-26T21:18:32.131Z,12.40
2018-09-26T21:21:00.592Z,12.30
2018-09-26T21:23:29.039Z,12.30
2018-09-26T21:25:57.500Z,12.30
2018-09-26T21:28:25.929Z,12.30
2018-09-26T21:30:54.389Z,12.30
2018-09-26T21:33:22.861Z,12.30
2018-09-26T21:35:51.446Z,12.20
2018-09-26T21:38:19.908Z,12.20
2018-09-26T21:40:48.337Z,12.20
2018-09-26T21:43:16.762Z,12.20
2018-09-26T21:45:45.194Z,12.20
2018-09-26T21:48:14.261Z,12.10
2018-09-26T21:50:43.479Z,12.10
2018-09-26T21:53:11.959Z,12.10
2018-09-26T21:55:40.421Z,12.10
2018-09-26T21:58:08.931Z,12.10
2018-09-26T22:00:41.646Z,12.00
2018-09-26T22:03:10.065Z,12.00
2018-09-26T22:05:38.518Z,12.00
2018-09-26T22:08:07.097Z,11.90
2018-09-26T22:10:35.514Z,11.90
2018-09-26T22:13:03.939Z,11.90
2018-09-26T22:15:32.405Z,11.90
2018-09-26T22:18:00.838Z,11.90
2018-09-26T22:20:29.314Z,11.80
2018-09-26T22:22:57.779Z,11.80
2018-09-26T22:25:26.221Z,11.80
2018-09-26T22:27:54.654Z,11.80
2018-09-26T22:30:23.125Z,11.80
2018-09-26T22:32:51.551Z,11.80
2018-09-26T22:35:20.009Z,11.80
2018-09-26T22:37:48.534Z,11.80
2018-09-26T22:40:17.017Z,11.70
2018-09-26T22:42:45.497Z,11.70
2018-09-26T22:45:13.953Z,11.60
2018-09-26T22:47:42.371Z,11.60
2018-09-26T22:50:10.805Z,11.60
2018-09-26T22:52:39.249Z,11.60
2018-09-26T22:55:07.745Z,11.60
2018-09-26T22:57:36.182Z,11.60
2018-09-26T23:00:04.701Z,11.60
2018-09-26T23:02:33.148Z,11.70
2018-09-26T23:05:01.601Z,11.70
2018-09-26T23:07:30.053Z,11.80
2018-09-26T23:09:58.515Z,11.80
2018-09-26T23:12:27.088Z,11.80
2018-09-26T23:14:55.545Z,11.90
2018-09-26T23:17:24.028Z,11.80
2018-09-26T23:19:52.466Z,11.80
2018-09-26T23:22:20.913Z,11.80
2018-09-26T23:24:49.404Z,11.80
2018-09-26T23:27:17.849Z,11.70
2018-09-26T23:29:46.253Z,11.70
2018-09-26T23:32:14.677Z,11.70
2018-09-26T23:34:43.111Z,11.70
2018-09-26T23:37:11.573Z,11.70
2018-09-26T23:39:40.019Z,11.70
2018-09-26T23:42:08.551Z,11.70
2018-09-26T23:44:37.054Z,11.70
2018-09-26T23:47:05.615Z,11.80
2018-09-26T23:49:34.033Z,11.80
2018-09-26T23:52:02.474Z,11.80
2018-09-26T23:54:30.990Z,11.70
2018-09-26T23:56:59.429Z,11.80
2018-09-26T23:59:27.892Z,11.70
